createdAt,value
2022-10-16T00:01:40.496Z,81.60
2022-10-16T00:04:07.730Z,81.60
2022-10-16T00:06:34.967Z,81.60
2022-10-16T00:09:02.127Z,81.50
2022-10-16T00:11:34.459Z,81.60
2022-10-16T00:14:03.968Z,81.60
2022-10-16T00:16:32.212Z,81.40
2022-10-16T00:18:59.447Z,81.20
2022-10-16T00:21:28.984Z,81.00
2022-10-16T00:24:06.250Z,81.00
2022-10-16T00:26:37.582Z,81.10
2022-10-16T00:29:06.145Z,81.00
2022-10-16T00:31:33.861Z,80.90
2022-10-16T00:34:01.485Z,80.80
2022-10-16T00:36:29.078Z,81.20
2022-10-16T00:41:29.564Z,81.40
2022-10-16T00:44:04.908Z,81.10
2022-10-16T00:46:41.022Z,81.20
2022-10-16T00:49:13.417Z,81.10
2022-10-16T00:51:44.385Z,81.00
2022-10-16T00:54:15.347Z,81.00
2022-10-16T00:56:44.261Z,80.80
2022-10-16T00:59:25.547Z,81.00
2022-10-16T01:01:53.767Z,80.50
2022-10-16T01:04:22.465Z,81.10
2022-10-16T01:07:11.241Z,81.00
2022-10-16T01:10:03.041Z,80.80
2022-10-16T01:12:50.276Z,80.60
2022-10-16T01:15:27.763Z,81.00
2022-10-16T01:18:05.025Z,81.20
2022-10-16T01:20:39.130Z,81.00
2022-10-16T01:23:22.338Z,80.80
2022-10-16T01:26:22.028Z,80.80
2022-10-16T01:29:11.047Z,80.80
2022-10-16T01:31:41.987Z,80.30
2022-10-16T01:34:23.702Z,80.50
2022-10-16T01:37:03.261Z,80.90
2022-10-16T01:39:33.612Z,81.00
2022-10-16T01:42:08.907Z,81.00
2022-10-16T01:44:39.350Z,81.10
2022-10-16T01:47:11.196Z,82.30
2022-10-16T01:49:40.808Z,81.60
2022-10-16T01:52:13.285Z,81.60
2022-10-16T01:54:43.548Z,82.10
2022-10-16T01:57:13.427Z,82.20
2022-10-16T01:59:45.030Z,82.10
2022-10-16T02:02:14.223Z,82.20
2022-10-16T02:04:53.994Z,82.40
2022-10-16T02:07:21.340Z,83.40
2022-10-16T02:09:48.541Z,82.70
2022-10-16T02:12:36.188Z,83.10
2022-10-16T02:15:04.022Z,83.50
2022-10-16T02:17:31.162Z,83.60
2022-10-16T02:20:00.224Z,84.80
2022-10-16T02:22:33.014Z,84.20
2022-10-16T02:25:05.583Z,84.30
2022-10-16T02:27:52.480Z,84.60
2022-10-16T02:30:37.004Z,84.70
2022-10-16T02:33:08.137Z,85.20
2022-10-16T02:35:36.325Z,85.20
2022-10-16T02:38:04.141Z,85.20
2022-10-16T02:40:31.978Z,85.30
2022-10-16T02:42:59.415Z,85.40
2022-10-16T02:45:27.339Z,86.00
2022-10-16T02:47:54.469Z,86.60
2022-10-16T02:50:21.901Z,87.10
2022-10-16T02:52:49.365Z,87.00
2022-10-16T02:55:16.479Z,87.10
2022-10-16T02:57:43.680Z,87.00
2022-10-16T03:00:14.073Z,87.20
2022-10-16T03:02:41.827Z,88.10
2022-10-16T03:05:10.270Z,87.20
2022-10-16T03:07:37.544Z,87.70
2022-10-16T03:10:05.285Z,88.10
2022-10-16T03:12:32.521Z,88.20
2022-10-16T03:14:59.862Z,88.20
2022-10-16T03:17:27.262Z,88.10
2022-10-16T03:19:54.530Z,87.80
2022-10-16T03:22:21.646Z,87.80
2022-10-16T03:24:48.798Z,87.70
2022-10-16T03:27:16.020Z,87.80
2022-10-16T03:29:43.129Z,87.80
2022-10-16T03:32:10.286Z,87.90
2022-10-16T03:34:37.504Z,88.00
2022-10-16T03:37:05.022Z,88.00
2022-10-16T03:39:32.159Z,88.10
2022-10-16T03:41:59.274Z,88.30
2022-10-16T03:44:26.408Z,88.40
2022-10-16T03:46:53.509Z,88.50
2022-10-16T03:49:20.616Z,88.60
2022-10-16T03:51:47.773Z,88.60
2022-10-16T03:54:14.870Z,88.70
2022-10-16T03:56:41.974Z,88.70
2022-10-16T03:59:09.177Z,88.90
2022-10-16T04:01:36.334Z,89.00
2022-10-16T04:04:03.457Z,89.10
2022-10-16T04:06:30.685Z,89.20
2022-10-16T04:08:57.818Z,89.30
2022-10-16T04:11:24.966Z,89.40
2022-10-16T04:13:52.096Z,89.40
2022-10-16T04:16:19.238Z,89.50
2022-10-16T04:18:46.399Z,89.20
2022-10-16T04:21:13.520Z,89.00
2022-10-16T04:23:40.658Z,88.90
2022-10-16T04:26:07.825Z,89.00
2022-10-16T04:28:34.971Z,89.30
2022-10-16T04:31:05.172Z,89.60
2022-10-16T04:33:32.568Z,89.60
2022-10-16T04:36:01.920Z,90.00
2022-10-16T04:38:29.486Z,89.50
2022-10-16T04:40:56.714Z,89.60
2022-10-16T04:43:23.928Z,90.20
2022-10-16T04:45:51.927Z,89.40
2022-10-16T04:48:19.395Z,89.40
2022-10-16T04:50:48.434Z,89.60
2022-10-16T04:53:18.765Z,89.70
2022-10-16T04:55:45.959Z,89.70
2022-10-16T04:58:13.236Z,89.80
2022-10-16T05:00:40.602Z,89.80
2022-10-16T05:03:09.589Z,89.50
2022-10-16T05:05:37.911Z,89.40
2022-10-16T05:08:05.193Z,89.20
2022-10-16T05:10:32.337Z,89.40
2022-10-16T05:12:59.535Z,90.10
2022-10-16T05:15:26.992Z,90.70
2022-10-16T05:17:55.411Z,91.10
2022-10-16T05:20:23.485Z,91.40
2022-10-16T05:22:50.826Z,91.70
2022-10-16T05:25:18.305Z,92.00
2022-10-16T05:27:49.560Z,92.10
2022-10-16T05:30:18.101Z,92.20
2022-10-16T05:32:51.922Z,92.40
2022-10-16T05:35:20.423Z,92.60
2022-10-16T05:37:48.167Z,92.20
2022-10-16T05:40:16.367Z,92.50
2022-10-16T05:42:43.514Z,92.60
2022-10-16T05:45:12.954Z,93.20
2022-10-16T05:47:40.577Z,92.70
2022-10-16T05:50:08.374Z,92.60
2022-10-16T05:52:35.600Z,92.70
2022-10-16T05:55:03.033Z,92.80
2022-10-16T05:57:30.824Z,92.70
2022-10-16T05:59:58.070Z,92.80
2022-10-16T06:02:25.168Z,92.90
2022-10-16T06:04:55.333Z,93.00
2022-10-16T06:07:24.244Z,93.00
2022-10-16T06:09:53.093Z,93.10
2022-10-16T06:12:20.749Z,93.00
2022-10-16T06:14:48.161Z,93.10
2022-10-16T06:17:16.003Z,93.30
2022-10-16T06:19:43.118Z,93.20
2022-10-16T06:22:10.355Z,93.30
2022-10-16T06:24:37.589Z,93.30
2022-10-16T06:27:05.834Z,93.30
2022-10-16T06:29:33.283Z,93.50
2022-10-16T06:32:00.557Z,93.40
2022-10-16T06:34:27.687Z,93.40
2022-10-16T06:36:55.037Z,93.40
2022-10-16T06:39:22.150Z,93.40
2022-10-16T06:41:49.830Z,93.10
2022-10-16T06:44:17.047Z,93.00
2022-10-16T06:46:44.180Z,92.80
2022-10-16T06:49:11.488Z,92.70
2022-10-16T06:51:43.171Z,92.40
2022-10-16T06:54:11.052Z,92.40
2022-10-16T06:56:38.559Z,92.20
2022-10-16T06:59:05.702Z,92.00
2022-10-16T07:01:33.595Z,91.70
2022-10-16T07:04:02.025Z,91.60
2022-10-16T07:06:34.097Z,91.60
2022-10-16T07:09:06.436Z,91.60
2022-10-16T07:11:34.227Z,92.10
2022-10-16T07:14:01.499Z,91.60
2022-10-16T07:16:30.472Z,91.30
2022-10-16T07:19:00.569Z,91.00
2022-10-16T07:21:31.292Z,91.00
2022-10-16T07:24:01.923Z,91.20
2022-10-16T07:26:31.808Z,91.30
2022-10-16T07:28:59.144Z,91.30
2022-10-16T07:31:27.007Z,91.00
2022-10-16T07:33:54.474Z,90.50
2022-10-16T07:36:22.147Z,90.80
2022-10-16T07:38:49.266Z,90.30
2022-10-16T07:41:19.945Z,90.20
2022-10-16T07:43:51.767Z,90.10
2022-10-16T07:46:20.551Z,89.90
2022-10-16T07:48:48.865Z,89.30
2022-10-16T07:51:18.381Z,88.90
2022-10-16T07:53:45.853Z,87.70
2022-10-16T07:56:13.339Z,88.00
2022-10-16T07:58:40.534Z,87.20
2022-10-16T08:01:14.243Z,87.00
2022-10-16T08:03:52.235Z,89.30
2022-10-16T08:06:25.068Z,83.80
2022-10-16T08:08:56.820Z,76.90
2022-10-16T08:11:24.449Z,68.80
2022-10-16T08:13:51.639Z,64.10
2022-10-16T08:16:18.891Z,63.20
2022-10-16T08:18:46.640Z,61.90
2022-10-16T08:21:20.270Z,60.20
2022-10-16T08:23:52.955Z,59.40
2022-10-16T08:26:26.584Z,58.50
2022-10-16T08:28:54.099Z,53.70
2022-10-16T08:31:21.803Z,50.50
2022-10-16T08:33:49.019Z,51.50
2022-10-16T08:36:17.348Z,48.00
2022-10-16T08:38:44.931Z,48.30
2022-10-16T08:41:18.146Z,44.70
2022-10-16T08:44:04.301Z,43.60
2022-10-16T08:46:36.813Z,42.90
2022-10-16T08:49:04.671Z,42.60
2022-10-16T08:51:34.309Z,37.60
2022-10-16T08:54:22.052Z,34.80
2022-10-16T08:56:49.205Z,36.30
2022-10-16T08:59:17.785Z,38.50
2022-10-16T09:01:51.521Z,38.40
2022-10-16T09:04:45.315Z,40.00
2022-10-16T09:07:12.387Z,41.70
2022-10-16T09:10:03.763Z,46.00
2022-10-16T09:12:41.130Z,52.50
2022-10-16T09:15:23.175Z,59.40
2022-10-16T09:18:13.351Z,62.60
2022-10-16T09:21:06.507Z,63.70
2022-10-16T09:23:37.555Z,65.60
2022-10-16T09:26:06.495Z,67.60
2022-10-16T09:28:33.841Z,64.10
2022-10-16T09:31:01.015Z,58.70
2022-10-16T09:33:36.589Z,49.10
2022-10-16T09:36:05.516Z,41.70
2022-10-16T09:38:35.234Z,38.40
2022-10-16T09:41:13.186Z,35.40
2022-10-16T09:43:58.684Z,38.10
2022-10-16T09:46:35.010Z,38.00
2022-10-16T09:49:04.896Z,39.00
2022-10-16T09:51:36.322Z,41.50
2022-10-16T09:54:15.855Z,47.00
2022-10-16T09:56:46.444Z,50.40
2022-10-16T09:59:16.533Z,45.70
2022-10-16T10:01:54.536Z,51.30
2022-10-16T10:04:24.652Z,46.80
2022-10-16T10:06:55.243Z,42.60
2022-10-16T10:09:26.795Z,39.60
2022-10-16T10:11:55.339Z,37.40
2022-10-16T10:14:39.585Z,35.50
2022-10-16T10:17:06.636Z,34.90
2022-10-16T10:20:04.350Z,34.20
2022-10-16T10:22:33.280Z,35.80
2022-10-16T10:25:09.841Z,39.30
2022-10-16T10:27:55.035Z,38.80
2022-10-16T10:30:28.163Z,31.90
2022-10-16T10:33:23.465Z,30.00
2022-10-16T10:36:26.133Z,28.30
2022-10-16T10:39:04.742Z,30.00
2022-10-16T10:42:07.969Z,31.80
2022-10-16T10:44:59.742Z,29.20
2022-10-16T10:47:45.473Z,27.40
2022-10-16T10:50:33.919Z,26.70
2022-10-16T10:53:30.107Z,26.40
2022-10-16T10:56:15.662Z,25.90
2022-10-16T10:59:15.002Z,24.70
2022-10-16T11:02:01.334Z,25.50
2022-10-16T11:04:46.604Z,26.80
2022-10-16T11:07:26.875Z,27.00
2022-10-16T11:09:59.419Z,26.40
2022-10-16T11:12:39.487Z,26.50
2022-10-16T11:15:16.988Z,26.90
2022-10-16T11:18:04.065Z,25.70
2022-10-16T11:20:41.096Z,24.60
2022-10-16T11:23:32.107Z,24.50
2022-10-16T11:26:05.079Z,24.60
2022-10-16T11:28:53.482Z,24.40
2022-10-16T11:31:24.623Z,23.50
2022-10-16T11:33:54.794Z,24.10
2022-10-16T11:36:32.002Z,23.80
2022-10-16T11:39:12.024Z,22.50
2022-10-16T11:41:55.377Z,21.90
2022-10-16T11:44:38.999Z,21.30
2022-10-16T11:50:41.552Z,24.00
2022-10-16T11:53:17.826Z,23.60
2022-10-16T11:55:47.271Z,23.20
2022-10-16T11:59:13.836Z,22.70
2022-10-16T12:01:43.448Z,22.50
2022-10-16T12:04:50.990Z,22.60
2022-10-16T12:07:25.518Z,22.40
2022-10-16T12:09:52.644Z,22.20
2022-10-16T12:12:36.886Z,20.90
2022-10-16T12:15:22.226Z,20.10
2022-10-16T12:17:57.930Z,20.10
2022-10-16T12:20:33.487Z,19.90
2022-10-16T12:23:06.334Z,19.80
2022-10-16T12:25:40.834Z,19.00
2022-10-16T12:28:16.721Z,18.00
2022-10-16T12:30:52.861Z,18.20
2022-10-16T12:33:26.329Z,17.10
2022-10-16T12:35:54.874Z,18.00
2022-10-16T12:38:25.329Z,17.50
2022-10-16T12:41:04.794Z,17.00
2022-10-16T12:43:43.402Z,17.70
2022-10-16T12:46:10.616Z,17.70
2022-10-16T12:48:48.550Z,17.70
2022-10-16T12:51:29.501Z,18.00
2022-10-16T12:54:25.809Z,19.30
2022-10-16T12:57:25.831Z,19.60
2022-10-16T13:00:13.481Z,19.50
2022-10-16T13:02:52.456Z,18.40
2022-10-16T13:05:39.151Z,18.30
2022-10-16T13:08:24.574Z,18.10
2022-10-16T13:11:22.858Z,18.30
2022-10-16T13:14:17.414Z,19.90
2022-10-16T13:16:44.476Z,21.00
2022-10-16T13:19:35.542Z,21.30
2022-10-16T13:22:30.508Z,22.10
2022-10-16T13:25:03.009Z,23.30
2022-10-16T13:27:41.015Z,24.70
2022-10-16T13:30:28.217Z,25.80
2022-10-16T13:33:21.986Z,25.70
2022-10-16T13:35:55.444Z,25.80
2022-10-16T13:38:25.502Z,26.20
2022-10-16T13:40:58.314Z,28.20
2022-10-16T13:43:48.461Z,28.50
2022-10-16T13:46:24.154Z,28.90
2022-10-16T13:48:59.429Z,30.10
2022-10-16T13:51:27.458Z,31.50
2022-10-16T13:53:57.450Z,31.80
2022-10-16T13:56:28.859Z,32.40
2022-10-16T13:59:07.315Z,32.70
2022-10-16T14:01:45.439Z,33.70
2022-10-16T14:04:14.707Z,34.40
2022-10-16T14:06:45.153Z,34.80
2022-10-16T14:09:28.603Z,35.30
2022-10-16T14:12:04.750Z,35.80
2022-10-16T14:14:49.289Z,36.60
2022-10-16T14:17:20.150Z,36.50
2022-10-16T14:19:51.832Z,37.70
2022-10-16T14:22:34.831Z,38.70
2022-10-16T14:25:21.328Z,39.30
2022-10-16T14:28:14.204Z,39.50
2022-10-16T14:30:55.302Z,39.30
2022-10-16T14:33:24.295Z,39.60
2022-10-16T14:36:12.253Z,39.40
2022-10-16T14:38:41.596Z,38.80
2022-10-16T14:41:09.554Z,39.30
2022-10-16T14:43:42.834Z,40.10
2022-10-16T14:46:15.905Z,41.70
2022-10-16T14:48:45.400Z,41.20
2022-10-16T14:51:19.850Z,41.50
2022-10-16T14:53:47.950Z,42.20
2022-10-16T14:56:19.614Z,42.60
2022-10-16T14:58:46.900Z,42.90
2022-10-16T15:01:14.176Z,43.30
2022-10-16T15:03:41.408Z,43.80
2022-10-16T15:06:12.921Z,44.40
2022-10-16T15:08:40.448Z,44.80
2022-10-16T15:11:15.030Z,45.10
2022-10-16T15:13:42.247Z,45.80
2022-10-16T15:16:14.332Z,45.70
2022-10-16T15:18:41.652Z,46.30
2022-10-16T15:21:09.826Z,47.00
2022-10-16T15:23:36.990Z,47.60
2022-10-16T15:26:04.152Z,48.00
2022-10-16T15:28:31.304Z,48.50
2022-10-16T15:30:58.805Z,48.90
2022-10-16T15:33:35.760Z,49.40
2022-10-16T15:36:06.234Z,50.20
2022-10-16T15:38:33.378Z,50.50
2022-10-16T15:41:00.561Z,51.00
2022-10-16T15:43:28.021Z,51.80
2022-10-16T15:46:04.484Z,52.40
2022-10-16T15:48:32.307Z,53.00
2022-10-16T15:51:00.799Z,53.30
2022-10-16T15:53:27.931Z,54.70
2022-10-16T15:55:55.214Z,55.40
2022-10-16T15:58:22.381Z,56.20
2022-10-16T16:01:02.123Z,56.00
2022-10-16T16:03:31.435Z,55.60
2022-10-16T16:06:05.599Z,56.40
2022-10-16T16:08:34.199Z,56.40
2022-10-16T16:11:12.856Z,56.50
2022-10-16T16:13:41.068Z,57.20
2022-10-16T16:16:10.433Z,57.60
2022-10-16T16:18:37.902Z,58.20
2022-10-16T16:21:05.454Z,59.30
2022-10-16T16:23:33.164Z,60.00
2022-10-16T16:26:24.834Z,59.90
2022-10-16T16:28:52.028Z,60.60
2022-10-16T16:31:19.398Z,60.80
2022-10-16T16:33:47.017Z,61.00
2022-10-16T16:36:15.962Z,61.30
2022-10-16T16:38:43.359Z,61.80
2022-10-16T16:41:20.052Z,61.80
2022-10-16T16:43:52.219Z,62.10
2022-10-16T16:46:19.975Z,62.40
2022-10-16T16:48:47.874Z,62.60
2022-10-16T16:51:17.102Z,63.00
2022-10-16T16:53:45.293Z,63.40
2022-10-16T16:56:12.654Z,63.40
2022-10-16T16:58:40.628Z,63.70
2022-10-16T17:01:26.252Z,64.00
2022-10-16T17:03:56.123Z,64.20
2022-10-16T17:06:30.423Z,64.40
2022-10-16T17:08:58.009Z,64.80
2022-10-16T17:11:27.635Z,64.90
2022-10-16T17:13:57.010Z,65.20
2022-10-16T17:16:30.568Z,66.60
2022-10-16T17:19:01.143Z,65.80
2022-10-16T17:21:30.402Z,66.00
2022-10-16T17:23:57.820Z,66.10
2022-10-16T17:26:25.046Z,66.40
2022-10-16T17:28:54.212Z,66.50
2022-10-16T17:31:25.145Z,66.70
2022-10-16T17:33:52.814Z,66.50
2022-10-16T17:36:21.334Z,66.40
2022-10-16T17:38:48.662Z,66.50
2022-10-16T17:41:22.493Z,66.30
2022-10-16T17:43:51.029Z,66.70
2022-10-16T17:46:20.978Z,66.80
2022-10-16T17:48:50.731Z,66.80
2022-10-16T17:51:21.300Z,66.60
2022-10-16T17:54:00.342Z,66.80
2022-10-16T17:56:28.472Z,66.80
2022-10-16T17:58:59.558Z,66.10
2022-10-16T18:01:35.104Z,66.70
2022-10-16T18:04:07.157Z,66.90
2022-10-16T18:06:35.253Z,67.30
2022-10-16T18:09:04.047Z,66.40
2022-10-16T18:11:31.711Z,67.10
2022-10-16T18:13:59.697Z,67.10
2022-10-16T18:16:28.903Z,67.20
2022-10-16T18:18:59.535Z,67.40
2022-10-16T18:21:28.182Z,67.80
2022-10-16T18:23:56.133Z,67.60
2022-10-16T18:26:23.916Z,67.30
2022-10-16T18:28:56.090Z,67.60
2022-10-16T18:31:25.353Z,67.60
2022-10-16T18:33:52.737Z,68.00
2022-10-16T18:36:39.580Z,68.10
2022-10-16T18:39:11.390Z,68.40
2022-10-16T18:41:44.667Z,68.40
2022-10-16T18:44:13.155Z,68.40
2022-10-16T18:46:40.480Z,68.70
2022-10-16T18:49:07.803Z,68.10
2022-10-16T18:51:40.697Z,69.20
2022-10-16T18:54:09.910Z,69.40
2022-10-16T18:56:37.752Z,70.00
2022-10-16T18:59:07.340Z,70.90
2022-10-16T19:01:38.078Z,71.60
2022-10-16T19:04:08.188Z,71.70
2022-10-16T19:06:38.706Z,71.90
2022-10-16T19:09:06.427Z,72.00
2022-10-16T19:11:36.767Z,72.20
2022-10-16T19:14:06.573Z,72.50
2022-10-16T19:16:36.152Z,72.70
2022-10-16T19:19:06.262Z,72.80
2022-10-16T19:21:36.559Z,72.90
2022-10-16T19:24:04.148Z,73.30
2022-10-16T19:26:33.400Z,73.10
2022-10-16T19:29:06.914Z,73.10
2022-10-16T19:31:34.464Z,73.40
2022-10-16T19:34:03.848Z,74.80
2022-10-16T19:36:33.711Z,74.30
2022-10-16T19:39:03.844Z,74.40
2022-10-16T19:41:31.541Z,74.60
2022-10-16T19:44:07.866Z,75.20
2022-10-16T19:46:35.887Z,76.00
2022-10-16T19:49:05.957Z,76.30
2022-10-16T19:51:33.214Z,76.70
2022-10-16T19:54:06.813Z,77.00
2022-10-16T19:56:35.960Z,77.10
2022-10-16T19:59:05.109Z,77.40
2022-10-16T20:01:33.080Z,78.10
2022-10-16T20:04:00.874Z,78.20
2022-10-16T20:06:28.079Z,78.40
2022-10-16T20:08:57.471Z,78.40
2022-10-16T20:11:30.771Z,78.70
2022-10-16T20:13:58.787Z,79.00
2022-10-16T20:16:27.560Z,78.80
2022-10-16T20:18:55.335Z,78.50
2022-10-16T20:21:25.939Z,79.30
2022-10-16T20:23:53.374Z,79.50
2022-10-16T20:26:23.869Z,79.40
2022-10-16T20:28:51.213Z,79.10
2022-10-16T20:31:22.600Z,79.00
2022-10-16T20:33:51.067Z,78.80
2022-10-16T20:36:20.899Z,78.80
2022-10-16T20:38:48.539Z,78.00
2022-10-16T20:41:17.606Z,78.80
2022-10-16T20:43:47.691Z,78.60
2022-10-16T20:46:20.341Z,78.80
2022-10-16T20:48:48.122Z,79.30
2022-10-16T20:51:35.502Z,79.60
2022-10-16T20:54:05.074Z,79.80
2022-10-16T20:56:36.033Z,80.60
2022-10-16T20:59:04.672Z,80.80
2022-10-16T21:01:32.086Z,81.30
2022-10-16T21:04:02.152Z,81.80
2022-10-16T21:06:31.586Z,82.00
2022-10-16T21:09:02.822Z,81.80
2022-10-16T21:14:06.187Z,83.10
2022-10-16T21:16:34.362Z,83.30
2022-10-16T21:19:01.587Z,83.60
2022-10-16T21:21:32.091Z,83.90
2022-10-16T21:24:00.002Z,84.00
2022-10-16T21:26:28.794Z,83.90
2022-10-16T21:29:03.598Z,82.90
2022-10-16T21:31:31.871Z,83.70
2022-10-16T21:33:59.651Z,83.70
2022-10-16T21:36:33.166Z,83.50
2022-10-16T21:39:02.532Z,83.70
2022-10-16T21:41:30.155Z,83.80
2022-10-16T21:43:58.712Z,83.70
2022-10-16T21:46:28.327Z,83.80
2022-10-16T21:48:56.817Z,83.80
2022-10-16T21:51:34.138Z,83.90
2022-10-16T21:54:02.384Z,84.20
2022-10-16T21:56:30.258Z,84.30
2022-10-16T21:58:57.875Z,84.60
2022-10-16T22:01:26.646Z,84.60
2022-10-16T22:03:55.153Z,84.50
2022-10-16T22:06:25.491Z,84.50
2022-10-16T22:08:55.123Z,84.50
2022-10-16T22:11:36.758Z,84.70
2022-10-16T22:14:06.593Z,84.80
2022-10-16T22:16:35.033Z,85.00
2022-10-16T22:19:03.585Z,85.10
2022-10-16T22:21:32.284Z,85.10
2022-10-16T22:24:00.258Z,85.10
2022-10-16T22:26:27.624Z,84.90
2022-10-16T22:28:55.938Z,84.50
2022-10-16T22:31:23.863Z,84.20
2022-10-16T22:33:59.113Z,84.20
2022-10-16T22:36:26.676Z,84.20
2022-10-16T22:38:54.414Z,84.20
2022-10-16T22:41:21.967Z,84.50
2022-10-16T22:43:50.129Z,84.60
2022-10-16T22:46:30.219Z,84.40
2022-10-16T22:48:57.969Z,84.30
2022-10-16T22:51:26.997Z,84.20
2022-10-16T22:53:54.205Z,84.30
2022-10-16T22:56:21.831Z,84.20
2022-10-16T22:58:49.542Z,84.20
2022-10-16T23:01:19.667Z,84.10
2022-10-16T23:03:46.984Z,84.10
2022-10-16T23:06:14.335Z,84.10
2022-10-16T23:08:41.865Z,83.10
2022-10-16T23:11:11.171Z,84.00
2022-10-16T23:13:43.363Z,84.10
2022-10-16T23:16:12.314Z,84.10
2022-10-16T23:18:40.090Z,84.00
2022-10-16T23:21:12.594Z,83.90
2022-10-16T23:23:40.768Z,83.90
2022-10-16T23:26:13.388Z,83.80
2022-10-16T23:28:41.152Z,84.00
2022-10-16T23:31:11.328Z,84.30
2022-10-16T23:33:39.901Z,84.20
2022-10-16T23:36:09.598Z,84.40
2022-10-16T23:38:37.057Z,83.70
2022-10-16T23:41:04.862Z,84.50
2022-10-16T23:43:32.189Z,84.40
2022-10-16T23:45:59.608Z,84.40
2022-10-16T23:48:27.051Z,84.20
2022-10-16T23:50:54.278Z,84.10
2022-10-16T23:53:21.705Z,84.00
2022-10-16T23:55:48.963Z,84.10
2022-10-16T23:58:16.344Z,83.60
